M I D A S
Marine Information and Data Acquisition System
Tripno 655 of the Zeeleeuw from 2004-02-25 07:30:40 to 2004-02-25 11:38:24
Back to CruiseResearch ActivitiesStationsMapUnderway DataData graphs

EquipmentUnitsComment
TimeDGPSUTC
LatitudeDGPSDM.mWGS84
LongitudeDGPSDM.mWGS84
HeadingGyrodeg 
SOGDGPSknotsSpeed over ground
COGDGPSdegCourse over ground
DepthEcho soundermeters200 kHz
Missing or incorrect values are displayed as -999
Navigation data collected by the RV Zeeleeuw from 2004-02-25 07:30:40 to 2004-02-25 11:38:24
Time Latitude Longitude Heading SOG COG Depth
2004-02-25 07:31:44 51°13.608 2°56.057 120.1 3.4 295 -999
2004-02-25 07:32:44 51°13.645 2°55.956 123.2 4.8 301 -999
2004-02-25 07:33:44 51°13.679 2°55.838 110.3 4.9 290 -999
2004-02-25 07:34:44 51°13.692 2°55.751 79.8 0.5 33 13.8
2004-02-25 07:35:44 51°13.707 2°55.768 16 1.3 193 13.5
2004-02-25 07:36:44 51°13.705 2°55.751 340.7 2.5 338 -999
2004-02-25 07:37:44 51°13.773 2°55.68 333 6.2 328 9.8
2004-02-25 07:38:44 51°13.876 2°55.597 339.9 7.3 336 9.6
2004-02-25 07:39:44 51°13.992 2°55.519 341.4 7.6 337 10
2004-02-25 07:40:44 51°14.109 2°55.434 338.6 8.4 334 10.4
2004-02-25 07:41:44 51°14.248 2°55.278 322.5 10.9 316 10.7
2004-02-25 07:42:44 51°14.374 2°55.042 315.6 12 309 10.4
2004-02-25 07:43:44 51°14.404 2°54.752 275.2 10.2 265 10.6
2004-02-25 07:44:44 51°14.388 2°54.507 275.9 8.9 266 10.2
2004-02-25 07:45:44 51°14.32 2°54.223 246.5 13.6 241 9.1
2004-02-25 07:46:44 51°14.205 2°53.896 246.2 14.1 243 9
2004-02-25 07:47:44 51°14.086 2°53.56 245.2 14.7 241 9.1
2004-02-25 07:48:44 51°13.971 2°53.217 246.7 14.8 244 9.4
2004-02-25 07:49:44 51°13.858 2°52.873 246.3 14.6 242 9.9
2004-02-25 07:50:44 51°13.747 2°52.532 246.7 14.4 243 9.9
2004-02-25 07:51:44 51°13.638 2°52.193 248 14.3 243 10.3
2004-02-25 07:52:44 51°13.527 2°51.852 247.4 14.7 244 10.4
2004-02-25 07:53:44 51°13.415 2°51.508 248.2 14.4 246 10.3
2004-02-25 07:54:44 51°13.302 2°51.165 246.8 14.5 245 10.6
2004-02-25 07:55:44 51°13.19 2°50.819 247.5 14.7 244 10.9
2004-02-25 07:56:44 51°13.072 2°50.476 245.3 14.5 242 10.9
2004-02-25 07:57:44 51°12.953 2°50.137 243.9 14.8 240 10.9
2004-02-25 07:58:44 51°12.833 2°49.797 245.1 14.7 242 11.2
2004-02-25 07:59:44 51°12.716 2°49.458 245.8 14.8 241 11.2
2004-02-25 08:00:44 51°12.596 2°49.119 246 14.8 243 11.3
2004-02-25 08:01:44 51°12.479 2°48.777 245.9 14.6 243 11.5
2004-02-25 08:02:44 51°12.36 2°48.44 244.2 14.7 243 11.5
2004-02-25 08:03:44 51°12.242 2°48.103 245.3 14.3 241 11.7
2004-02-25 08:04:44 51°12.125 2°47.766 243.7 14.6 239 11.6
2004-02-25 08:05:44 51°12.01 2°47.428 245.6 14.5 241 11.7
2004-02-25 08:06:44 51°11.893 2°47.089 247.1 14.6 244 11.5
2004-02-25 08:07:44 51°11.811 2°46.725 255.9 14.7 250 11.8
2004-02-25 08:08:44 51°11.732 2°46.36 255.5 14.6 249 11.9
2004-02-25 08:09:44 51°11.654 2°45.991 255.3 14.6 248 12
2004-02-25 08:10:44 51°11.573 2°45.625 255.6 14.6 251 11.9
2004-02-25 08:11:44 51°11.493 2°45.26 256.4 14.5 252 12
2004-02-25 08:12:44 51°11.414 2°44.894 254.9 14.6 251 11.9
2004-02-25 08:13:44 51°11.335 2°44.528 256.1 14.6 252 11.9
2004-02-25 08:14:44 51°11.256 2°44.164 255.3 14.6 249 11.9
2004-02-25 08:15:44 51°11.177 2°43.799 254.5 14.4 250 11.7
2004-02-25 08:16:44 51°11.098 2°43.435 255.2 14.6 249 11.9
2004-02-25 08:17:44 51°11.019 2°43.072 256.2 14.5 253 11.8
2004-02-25 08:18:44 51°10.942 2°42.709 255.4 14.6 251 11.8
2004-02-25 08:19:44 51°10.869 2°42.34 258.1 14.6 254 11.8
2004-02-25 08:20:44 51°10.806 2°41.967 258.3 14.6 254 11.8
2004-02-25 08:21:44 51°10.743 2°41.597 259.8 14.4 255 12
2004-02-25 08:22:44 51°10.68 2°41.225 259.3 14.5 257 11.8
2004-02-25 08:23:44 51°10.618 2°40.851 260.3 14.5 255 11.9
2004-02-25 08:24:44 51°10.554 2°40.479 259.6 14.6 256 12.4
2004-02-25 08:25:44 51°10.49 2°40.106 259.5 14.4 255 12.7
2004-02-25 08:26:44 51°10.425 2°39.732 259.4 14.8 253 13.4
2004-02-25 08:27:44 51°10.363 2°39.359 260 14.3 257 13.8
2004-02-25 08:28:44 51°10.299 2°38.992 258.3 14.4 255 14.8
2004-02-25 08:29:44 51°10.238 2°38.625 259.7 14.3 255 15
2004-02-25 08:30:44 51°10.174 2°38.26 259.8 14.5 254 15.2
2004-02-25 08:31:44 51°10.114 2°37.888 260.3 14.5 258 16
2004-02-25 08:32:44 51°10.053 2°37.514 259.8 14.7 257 16.6
2004-02-25 08:33:44 51°9.991 2°37.142 259.7 14.4 256 17
2004-02-25 08:34:44 51°9.973 2°36.763 276.4 14.3 272 17.1
2004-02-25 08:35:44 51°9.988 2°36.381 279.1 14.5 273 17
2004-02-25 08:36:44 51°10.027 2°36.012 299.7 13.9 294 16.8
2004-02-25 08:37:44 51°10.18 2°35.758 338.8 13.1 332 10.3
2004-02-25 08:38:44 51°10.387 2°35.684 6.5 12.8   10.3
2004-02-25 08:39:44 51°10.591 2°35.757 23.1 12.6 16 9.6
2004-02-25 08:40:44 51°10.78 2°35.899 33.7 12.6 26 9.7
2004-02-25 08:41:44 51°10.963 2°36.063 38.4 12.5 32 10.2
2004-02-25 08:42:44 51°11.141 2°36.24 38.3 12.4 31 10
2004-02-25 08:43:44 51°11.318 2°36.413 38.3 12.4 30 10.2
2004-02-25 08:44:44 51°11.496 2°36.587 37.8 12.5 33 10.5
2004-02-25 08:45:44 51°11.674 2°36.765 38.4 12.7 32 10.3
2004-02-25 08:46:44 51°11.852 2°36.94 38.2 12.7 32 10.2
2004-02-25 08:47:44 51°12.029 2°37.113 38.5 12.6 32 10
2004-02-25 08:48:44 51°12.206 2°37.286 38.4 12.3 32 10.4
2004-02-25 08:49:44 51°12.381 2°37.456 37.5 12.5 30 10.8
2004-02-25 08:50:44 51°12.555 2°37.628 38.3 12.3 30 11.3
2004-02-25 08:51:44 51°12.736 2°37.789 35.4 12.4 30 11.9
2004-02-25 08:52:44 51°12.913 2°37.959 38.3 12.1 32 12.1
2004-02-25 08:53:44 51°13.088 2°38.129 38.2 12.3 32 12.8
2004-02-25 08:54:44 51°13.271 2°38.29 37 12.4 30 13.2
2004-02-25 08:55:44 51°13.457 2°38.444 32.6 12.5 25 13.4
2004-02-25 08:56:44 51°13.651 2°38.567 28.6 12.6 21 13
2004-02-25 08:57:44 51°13.853 2°38.662 23.3 12.8 14 12
2004-02-25 08:58:44 51°14.047 2°38.622 333.8 12.7 325 11.8
2004-02-25 08:59:44 51°14.029 2°38.282 252.3 14.2 248 15.7
2004-02-25 09:00:44 51°13.908 2°37.945 246.5 14.9 241 15.3
2004-02-25 09:01:44 51°13.803 2°37.589 248 15 246 16.4
2004-02-25 09:02:44 51°13.701 2°37.231 249.6 14.8 247 17.3
2004-02-25 09:03:44 51°13.6 2°36.872 248.6 15 242 16.7
2004-02-25 09:04:44 51°13.494 2°36.52 247.3 14.7 244 14.1
2004-02-25 09:05:44 51°13.393 2°36.161 251.2 14.9 248 15.6
2004-02-25 09:06:44 51°13.296 2°35.8 252.3 14.6 249 16.1
2004-02-25 09:07:44 51°13.196 2°35.444 250 14.6 245 15.5
2004-02-25 09:08:44 51°13.099 2°35.086 253 14.4 246 16.2
2004-02-25 09:09:44 51°13.001 2°34.726 252.3 14.9 247 16.6
2004-02-25 09:10:44 51°12.901 2°34.368 251.8 14.9 244 16.3
2004-02-25 09:11:44 51°12.801 2°34.008 251.9 14.9 242 16
2004-02-25 09:12:44 51°12.701 2°33.646 251.1 15 244 14.7
2004-02-25 09:13:44 51°12.596 2°33.288 250.4 14.9 242 14.1
2004-02-25 09:14:44 51°12.494 2°32.929 251.9 15.2 243 13.8
2004-02-25 09:15:44 51°12.392 2°32.57 251.1 14.7 244 15.4
2004-02-25 09:16:44 51°12.289 2°32.215 251.4 15 245 16.2
2004-02-25 09:17:44 51°12.186 2°31.858 251.7 14.8 245 17.4
2004-02-25 09:18:44 51°12.093 2°31.494 254.6 15.1 248 19.8
2004-02-25 09:19:44 51°12.001 2°31.128 254.3 14.9 247 20.6
2004-02-25 09:20:44 51°11.909 2°30.76 253.6 15.1 246 21.9
2004-02-25 09:21:44 51°11.816 2°30.391 254 15 247 21.8
2004-02-25 09:22:44 51°11.725 2°30.022 253.8 14.9 248 21.9
2004-02-25 09:23:44 51°11.632 2°29.652 255.1 14.8 250 21.5
2004-02-25 09:24:44 51°11.541 2°29.28 254.1 15 248 23.1
2004-02-25 09:25:44 51°11.451 2°28.906 255.4 14.8 248 22.8
2004-02-25 09:26:44 51°11.369 2°28.522 256.9 15.4 253 20.6
2004-02-25 09:27:44 51°11.288 2°28.134 256.8 15.4 251 21.1
2004-02-25 09:28:44 51°11.208 2°27.742 256.3 15.5 251 20.5
2004-02-25 09:29:44 51°11.146 2°27.344 265.2 15.6 259 21.5
2004-02-25 09:30:44 51°11.114 2°26.939 271.8 15.2 266 20.7
2004-02-25 09:31:44 51°11.111 2°26.534 280.8 15.1 272 19.6
2004-02-25 09:32:44 51°11.124 2°26.134 281.2 15.2 275 15.4
2004-02-25 09:33:44 51°11.15 2°25.738 284.7 14.9 277 11.8
2004-02-25 09:34:44 51°11.23 2°25.369 309.1 14.4 300 17.8
2004-02-25 09:35:44 51°11.415 2°25.208 5 12.7 358 22.2
2004-02-25 09:36:44 51°11.596 2°25.349 45.9 12.6 42 23.2
2004-02-25 09:37:44 51°11.749 2°25.567 45.6 12.5 41 24
2004-02-25 09:38:44 51°11.916 2°25.762 40.3 12.5 35 23.2
2004-02-25 09:39:44 51°12.085 2°25.951 39.6 12.4 34 23.5
2004-02-25 09:40:44 51°12.252 2°26.133 38.6 12.1 34 24.1
2004-02-25 09:41:44 51°12.422 2°26.308 37.9 12.2 32 24.2
2004-02-25 09:42:44 51°12.591 2°26.484 38.4 12 35 24.3
2004-02-25 09:43:44 51°12.747 2°26.687 44.1 11.8 41 23.5
2004-02-25 09:44:44 51°12.898 2°26.896 44.4 12 40 23.5
2004-02-25 09:45:44 51°13.053 2°27.105 44.4 12.2 42 23.1
2004-02-25 09:46:44 51°13.209 2°27.313 44.1 12.4 39 23.2
2004-02-25 09:47:44 51°13.364 2°27.519 44.6 12.3 40 23.2
2004-02-25 09:48:44 51°13.518 2°27.727 44 12.3 41 23.7
2004-02-25 09:49:44 51°13.674 2°27.934 44.2 12.5 40 23.9
2004-02-25 09:50:44 51°13.836 2°28.143 43.5 12.5 38 24.2
2004-02-25 09:51:44 51°13.993 2°28.354 44.2 12.2 38 24.3
2004-02-25 09:52:44 51°14.149 2°28.564 43.7 12.3 42 24.8
2004-02-25 09:53:44 51°14.298 2°28.791 48.6 12.4 47 25.4
2004-02-25 09:54:44 51°14.453 2°29.01 43.7 12.5 39 26.2
2004-02-25 09:55:44 51°14.61 2°29.224 45 12.5 40 25.8
2004-02-25 09:56:44 51°14.764 2°29.436 45 12.3 40 26.2
2004-02-25 09:57:44 51°14.916 2°29.653 45.9 12.1 42 25.9
2004-02-25 09:58:44 51°15.074 2°29.861 45.1 12.4 38 26.4
2004-02-25 09:59:44 51°15.231 2°30.071 44.7 12.3 40 25.7
2004-02-25 10:00:44 51°15.386 2°30.283 46.4 12 43 26.6
2004-02-25 10:01:44 51°15.542 2°30.49 45.3 12.4 42 26.4
2004-02-25 10:02:44 51°15.698 2°30.702 45.7 12.3 42 26.5
2004-02-25 10:03:44 51°15.854 2°30.911 45.6 12.2 39 26.1
2004-02-25 10:04:44 51°16.008 2°31.118 44.7 12.2 39 26.6
2004-02-25 10:05:44 51°16.157 2°31.344 48.8 12.5 44 26.8
2004-02-25 10:06:44 51°16.301 2°31.576 50.3 12.5 45 26
2004-02-25 10:07:44 51°16.445 2°31.805 49.4 12.3 44 26.4
2004-02-25 10:08:44 51°16.592 2°32.033 49.4 12.5 44 25.4
2004-02-25 10:09:44 51°16.737 2°32.266 49.3 12.2 44 23.8
2004-02-25 10:10:44 51°16.881 2°32.495 49.4 12.3 45 23.9
2004-02-25 10:11:44 51°17.025 2°32.721 49.3 12.2 44 23.4
2004-02-25 10:12:44 51°17.177 2°32.941 46.3 12.3 41 24.1
2004-02-25 10:13:44 51°17.326 2°33.155 47.7 11.8 43 25.2
2004-02-25 10:14:44 51°17.475 2°33.367 48 11.9 42 27
2004-02-25 10:15:44 51°17.62 2°33.572 48.4 11.8 44 25.7
2004-02-25 10:16:44 51°17.767 2°33.781 46.2 12.1 41 25.8
2004-02-25 10:17:44 51°17.915 2°33.988 48.2 11.7 42 27.3
2004-02-25 10:18:44 51°18.063 2°34.196 47.1 11.8 42 26.5
2004-02-25 10:19:44 51°18.211 2°34.403 47.1 12 42 24.3
2004-02-25 10:20:44 51°18.355 2°34.614 47.4 11.8 41 24.6
2004-02-25 10:21:44 51°18.5 2°34.825 46.7 11.8 38 25.3
2004-02-25 10:22:44 51°18.646 2°35.036 48 11.8 45 23.8
2004-02-25 10:23:44 51°18.791 2°35.241 47.1 11.7 40 18.8
2004-02-25 10:24:44 51°18.937 2°35.452 47.5 11.9 45 20.2
2004-02-25 10:25:44 51°19.081 2°35.66 48 11.6 42 21.3
2004-02-25 10:26:44 51°19.224 2°35.866 47.9 11.7 39 21.6
2004-02-25 10:27:44 51°19.368 2°36.074 46.3 11.7 40 22
2004-02-25 10:28:44 51°19.503 2°36.295 55.7 11.6 54 20.1
2004-02-25 10:29:44 51°19.602 2°36.563 67.7 11.9 67 20.5
2004-02-25 10:30:44 51°19.638 2°36.874 83.4 11.8 83 19.1
2004-02-25 10:31:44 51°19.658 2°37.193 82.1 12 83 21.6
2004-02-25 10:32:44 51°19.689 2°37.518 80.6 12.3 80 19.9
2004-02-25 10:33:44 51°19.722 2°37.84 80.8 12.2 82 21.3
2004-02-25 10:34:44 51°19.734 2°38.167 88.3 12.5 89 21.2
2004-02-25 10:35:44 51°19.739 2°38.495 87.6 12.3 89 23.2
2004-02-25 10:36:44 51°19.724 2°38.826 95.6 12.7 92 24.6
2004-02-25 10:37:44 51°19.704 2°39.156 93 12.6 96 26.9
2004-02-25 10:38:44 51°19.692 2°39.487 88 12.4 85 29.1
2004-02-25 10:39:44 51°19.691 2°39.819 87.8 12.3 85 29.5
2004-02-25 10:40:44 51°19.69 2°40.149 89.9 12.2 85 27.8
2004-02-25 10:41:44 51°19.695 2°40.48 89.9 12.3 89 17.7
2004-02-25 10:42:44 51°19.702 2°40.802 87 12.1 83 18.4
2004-02-25 10:43:44 51°19.735 2°41.123 82 12.2 75 16
2004-02-25 10:44:44 51°19.772 2°41.443 82.8 12.1 76 16.3
2004-02-25 10:45:44 51°19.808 2°41.757 80 12 82 20
2004-02-25 10:46:44 51°19.842 2°42.069 81.1 11.9 81 21.1
2004-02-25 10:47:44 51°19.865 2°42.39 83.4 12.4 83 24.2
2004-02-25 10:48:44 51°19.884 2°42.71 83.6 12.1 83 24.8
2004-02-25 10:49:44 51°19.904 2°43.032 83.6 12.2 87 25.2
2004-02-25 10:50:44 51°19.904 2°43.363 94.7 13 100 25.6
2004-02-25 10:51:44 51°19.874 2°43.687 98.6 12.4 99 24.8
2004-02-25 10:52:44 51°19.834 2°44.01 101.8 13 96 22.8
2004-02-25 10:53:44 51°19.789 2°44.336 101.4 12.9 101 23.2
2004-02-25 10:54:44 51°19.74 2°44.66 101.6 13.1 106 22
2004-02-25 10:55:44 51°19.694 2°44.99 101.8 12.7 97 20.7
2004-02-25 10:56:44 51°19.651 2°45.319 103.7 12.5 96 15.7
2004-02-25 10:57:44 51°19.614 2°45.641 100.4 12.2 98 11.9
2004-02-25 10:58:44 51°19.568 2°45.967 102 12.7 99 14.5
2004-02-25 10:59:44 51°19.52 2°46.293 100.7 12.1 107 18.7
2004-02-25 11:00:44 51°19.464 2°46.611 104.4 12.6 103 19.8
2004-02-25 11:01:44 51°19.419 2°46.935 100.8 12.5 106 21.2
2004-02-25 11:02:44 51°19.371 2°47.263 101.1 12.8 103 21.2
2004-02-25 11:03:44 51°19.311 2°47.582 106.9 12.8 106 20.6
2004-02-25 11:04:44 51°19.243 2°47.9 105.5 13 110 19.3
2004-02-25 11:05:44 51°19.172 2°48.216 105.2 12.5 112 17.6
2004-02-25 11:06:44 51°19.103 2°48.534 104.1 12.9 106 15.1
2004-02-25 11:07:44 51°19.041 2°48.856 104.7 12.8 106 13.8
2004-02-25 11:08:44 51°18.972 2°49.177 108.4 13 116 11.8
2004-02-25 11:09:44 51°18.898 2°49.491 109.4 13.2 116 10.5
2004-02-25 11:10:44 51°18.808 2°49.798 111.9 13.4 115 11.1
2004-02-25 11:11:44 51°18.708 2°50.098 113.1 12.2 121 13
2004-02-25 11:12:44 51°18.575 2°50.376 127.1 13.4 134 14.6
2004-02-25 11:13:44 51°18.439 2°50.649 118.6 13.2 124 14.3
2004-02-25 11:14:44 51°18.306 2°50.927 119.2 12.9 122 13.2
2004-02-25 11:15:44 51°18.169 2°51.208 124 14.6 125 12
2004-02-25 11:16:44 51°18.02 2°51.473 128.7 13.4 137 10.8
2004-02-25 11:17:44 51°17.857 2°51.723 132.3 12.9 143 10
2004-02-25 11:18:44 51°17.668 2°51.932 149.2 13.7 152 9.7
2004-02-25 11:19:44 51°17.448 2°52.086 156.7 14.2 159 10.3
2004-02-25 11:20:44 51°17.218 2°52.223 153.1 14.8 159 10.2
2004-02-25 11:21:44 51°16.99 2°52.361 153.7 15.3 154 9.2
2004-02-25 11:22:44 51°16.77 2°52.512 154.8 14 157 9.7
2004-02-25 11:23:44 51°16.552 2°52.674 149.5 14.7 152 11.2
2004-02-25 11:24:44 51°16.334 2°52.852 151.7 15.5 152 12.1
2004-02-25 11:25:44 51°16.157 2°52.995 148.4 9.7 151 12.2
2004-02-25 11:26:44 51°16.018 2°53.103 149.8 8.3 154 12
2004-02-25 11:27:44 51°15.877 2°53.208 150.9 11 155 11.8
2004-02-25 11:28:44 51°15.668 2°53.339 150 14 157 11.1
2004-02-25 11:29:44 51°15.454 2°53.497 154.5 14.2 159 10.2
2004-02-25 11:30:44 51°15.232 2°53.641 153.5 14.2 158 9.4
2004-02-25 11:31:44 51°15.065 2°53.855 128.9 12.3 130 9.7
2004-02-25 11:32:44 51°14.908 2°54.095 136.5 13.4 141 8.7
2004-02-25 11:33:44 51°14.729 2°54.316 149.4 13.6 151 10.1
2004-02-25 11:34:44 51°14.552 2°54.556 136.4 14.3 135 10.2
2004-02-25 11:35:44 51°14.428 2°54.847 130.6 13.2 132 10.1
2004-02-25 11:36:44 51°14.313 2°55.125 120.3 11.8 117 9.9
2004-02-25 11:37:45 51°14.202 2°55.355 140.9 10.6 139 -999